Corona Ace — 3ELE3 — position and weather

sailwx.info

Track history (hours):
 
Tides and Currents Weather Stations Pressure Air Temp Water Temp Dewpoint Dewpoint Depression Visibility Wind Speed Wind Dir Waves Ship Positions

Corona Ace

Last reported at 2018-Jun-11 10:11 UTC. Time now 2018-Jun-20 13:07 UTC.
Position S 27°45' E 153°49'.
Warning: this ship's position is 9 days out of date.

Length 229 m; draft 12.8 m.

Type: Cargo ship. MMSI: 357173000.

Date/timePositionNaut miles runAvg speedWind from/ knotsBaromVisibWave heightAir tempDewpointWater temp
2018-Jun-11 10:11S 27°45' E 153°49'211.3
2018-Jun-11 10:00S 27°47' E 153°49'28412.1
2018-Jun-10 10:34S 32°25' E 152°41'113.5
2018-Jun-10 10:28S 32°26' E 152°40'613.0
2018-Jun-10 10:00S 32°31' E 152°36'713.2
2018-Jun-10 09:30S 32°36' E 152°30'612.9
2018-Jun-10 09:00S 32°40' E 152°25'612.7
2018-Jun-10 08:30S 32°45' E 152°20'612.4
2018-Jun-10 08:00S 32°49' E 152°14'611.6
2018-Jun-10 07:30S 32°52' E 152°08'611.9
2018-Jun-10 07:00S 32°53' E 152°01'611.5
2018-Jun-10 06:30S 32°54' E 151°55'5 9.9
2018-Jun-10 06:00S 32°55' E 151°49'2 3.8
2018-Jun-10 05:29S 32°55' E 151°46'1 2.9
2018-Jun-10 05:00S 32°53' E 151°46'0 0.8
2018-Jun-10 04:30S 32°53' E 151°45'0 0.0
2018-Jun-10 04:00S 32°53' E 151°45'0 0.0
2018-Jun-10 03:30S 32°53' E 151°45'0 0.0
2018-Jun-10 03:00S 32°53' E 151°45'0 0.0
2018-Jun-10 02:30S 32°53' E 151°45'0 0.0
2018-Jun-10 02:00S 32°53' E 151°45'0 0.0
2018-Jun-10 01:30S 32°53' E 151°45'0 0.0
2018-Jun-10 01:00S 32°53' E 151°45'0 0.0
2018-Jun-10 00:30S 32°53' E 151°45'0 0.0
2018-Jun-10 00:00S 32°53' E 151°45'0 0.0
2018-Jun-09 23:30S 32°53' E 151°45'0 0.0
2018-Jun-09 23:00S 32°53' E 151°45'0 0.0
2018-Jun-09 22:30S 32°53' E 151°45'0 0.0
2018-Jun-09 22:00S 32°53' E 151°45'0 0.0
2018-Jun-09 21:30S 32°53' E 151°45'0 0.0
2018-Jun-09 21:00S 32°53' E 151°45'0 0.0
2018-Jun-09 20:30S 32°53' E 151°45'0 0.0
2018-Jun-09 20:00S 32°53' E 151°45'0 0.0
2018-Jun-09 19:27S 32°53' E 151°45'0 0.0
2018-Jun-09 19:00S 32°53' E 151°45'0 0.0
2018-Jun-09 18:30S 32°53' E 151°45'0 0.0
2018-Jun-09 18:00S 32°53' E 151°45'0 0.0
2018-Jun-09 17:30S 32°53' E 151°45'0 0.0
2018-Jun-09 17:00S 32°53' E 151°45'0 0.0
2018-Jun-09 16:30S 32°53' E 151°45'0 0.0
2018-Jun-09 16:00S 32°53' E 151°45'0 0.0
2018-Jun-09 15:00S 32°53' E 151°45'0 0.0
2018-Jun-09 14:30S 32°53' E 151°45'0 0.0
2018-Jun-09 14:00S 32°53' E 151°45'0 0.0
2018-Jun-09 13:30S 32°53' E 151°45'0 0.0
2018-Jun-09 13:00S 32°53' E 151°45'0 0.0
2018-Jun-09 12:30S 32°53' E 151°45'0 0.0
2018-Jun-09 12:00S 32°53' E 151°45'0 0.0
2018-Jun-09 11:30S 32°53' E 151°45'0 0.0
2018-Jun-09 11:00S 32°53' E 151°45'0 0.0
2018-Jun-09 10:30S 32°53' E 151°45'0 0.0
2018-Jun-09 10:00S 32°53' E 151°45'0 0.0
2018-Jun-09 09:30S 32°53' E 151°45'0 0.1
2018-Jun-09 08:59S 32°53' E 151°45'1 2.1
2018-Jun-09 08:30S 32°54' E 151°46'2 3.5
2018-Jun-09 08:00S 32°55' E 151°48'4 7.5
2018-Jun-09 07:30S 32°57' E 151°52'4 7.5
2018-Jun-09 07:00S 33°01' E 151°53'3 6.8
2018-Jun-09 06:30S 33°04' E 151°53'3 6.8
2018-Jun-09 06:00S 33°07' E 151°51'4 8.3
2018-Jun-09 05:30S 33°11' E 151°49'21 2.4
2018-Jun-08 20:46S 33°27' E 151°32'0 0.0
2018-Jun-08 20:19S 33°27' E 151°32'0 0.0
2018-Jun-08 19:58S 33°27' E 151°32'0 0.0
2018-Jun-08 19:25S 33°27' E 151°32'0 0.1
2018-Jun-08 18:58S 33°27' E 151°32'0 0.0
2018-Jun-08 18:28S 33°27' E 151°32'0 0.0
2018-Jun-08 16:16S 33°27' E 151°32'0 0.2
2018-Jun-08 15:58S 33°27' E 151°32'0 0.3
2018-Jun-08 15:28S 33°27' E 151°32'0 0.2
2018-Jun-08 14:58S 33°27' E 151°32'0 0.1
2018-Jun-08 14:28S 33°27' E 151°32'0 0.0
2018-Jun-08 13:52S 33°27' E 151°32'0 0.0
2018-Jun-08 13:28S 33°27' E 151°32'0 0.0
2018-Jun-08 12:58S 33°27' E 151°32'0 0.1
2018-Jun-08 12:28S 33°27' E 151°32'0 0.0
2018-Jun-08 11:58S 33°27' E 151°32'0 0.1
2018-Jun-08 11:25S 33°27' E 151°32'0 0.0
2018-Jun-08 10:58S 33°27' E 151°32'0 0.1
2018-Jun-08 10:16S 33°27' E 151°32'0 0.2
2018-Jun-08 09:58S 33°27' E 151°32'0 0.1
2018-Jun-08 09:16S 33°27' E 151°32'0 0.1
2018-Jun-08 08:22S 33°27' E 151°32'0 0.0
2018-Jun-08 07:55S 33°27' E 151°32'0 0.2
2018-Jun-08 07:25S 33°27' E 151°32'0 0.0
2018-Jun-08 01:37S 33°27' E 151°32'0 0.1
2018-Jun-08 01:13S 33°27' E 151°32'0 0.2
2018-Jun-08 00:58S 33°27' E 151°32'0 0.0
2018-Jun-08 00:28S 33°27' E 151°32'0 0.0
2018-Jun-07 20:31S 33°27' E 151°32'0 0.1
2018-Jun-07 20:28S 33°27' E 151°32'0 0.0
2018-Jun-07 19:58S 33°27' E 151°32'0 0.0
2018-Jun-07 19:28S 33°27' E 151°32'0 0.1
2018-Jun-07 18:58S 33°27' E 151°32'0 0.1
2018-Jun-07 18:28S 33°27' E 151°32'0 0.1
2018-Jun-07 17:40S 33°27' E 151°32'0 0.0
2018-Jun-07 17:16S 33°27' E 151°32'0 0.0
2018-Jun-07 15:13S 33°27' E 151°32'0 0.0
2018-Jun-07 14:52S 33°27' E 151°32'0 0.0
2018-Jun-07 14:25S 33°27' E 151°32'0 0.0
2018-Jun-07 13:58S 33°27' E 151°32'0 0.0
2018-Jun-07 12:40S 33°27' E 151°32'0 0.2
2018-Jun-07 12:22S 33°27' E 151°32'0 0.1
2018-Jun-07 11:43S 33°27' E 151°32'0 0.0
2018-Jun-07 11:28S 33°27' E 151°32'0 0.1
2018-Jun-07 10:55S 33°27' E 151°32'0 0.0
2018-Jun-07 07:49S 33°27' E 151°32'0 0.0
2018-Jun-07 07:25S 33°27' E 151°32'0 0.0
2018-Jun-06 20:58S 33°27' E 151°32'0 0.1
2018-Jun-06 20:28S 33°27' E 151°32'0 0.1
2018-Jun-06 19:58S 33°27' E 151°32'0 0.0
2018-Jun-06 19:28S 33°27' E 151°32'0 0.0
2018-Jun-06 18:58S 33°27' E 151°32'0 0.0
2018-Jun-06 18:28S 33°27' E 151°32'0 0.0
2018-Jun-06 17:58S 33°27' E 151°32'0 0.0
2018-Jun-06 17:28S 33°27' E 151°32'0 0.1
2018-Jun-06 16:55S 33°27' E 151°32'0 0.1
2018-Jun-06 16:25S 33°27' E 151°32'0 0.0
2018-Jun-06 15:58S 33°27' E 151°32'0 0.0
2018-Jun-06 15:28S 33°27' E 151°32'0 0.1
2018-Jun-06 14:58S 33°27' E 151°32'0 0.1
2018-Jun-06 14:28S 33°27' E 151°32'0 0.1
2018-Jun-06 13:58S 33°27' E 151°32'0 0.1
2018-Jun-06 13:28S 33°27' E 151°32'0 0.1
2018-Jun-06 12:58S 33°27' E 151°32'0 0.1
2018-Jun-06 12:28S 33°27' E 151°32'0 0.0
2018-Jun-06 11:52S 33°27' E 151°32'0 0.1
2018-Jun-06 11:28S 33°27' E 151°32'0 0.2
2018-Jun-06 10:58S 33°27' E 151°32'0 0.0
2018-Jun-06 10:28S 33°27' E 151°32'0 0.0
2018-Jun-06 09:55S 33°27' E 151°32'0 0.1
2018-Jun-06 09:28S 33°27' E 151°32'0 0.0
2018-Jun-06 07:55S 33°27' E 151°32'0 0.1
2018-Jun-06 06:46S 33°26' E 151°32'0 0.0
2018-Jun-05 21:01S 33°26' E 151°32'0 0.1
2018-Jun-05 20:58S 33°26' E 151°32'0 0.1
2018-Jun-05 20:28S 33°26' E 151°32'0 0.0
2018-Jun-05 19:58S 33°26' E 151°32'0 0.0
2018-Jun-05 19:25S 33°26' E 151°32'0 0.1
2018-Jun-05 18:58S 33°26' E 151°32'0 0.1
2018-Jun-05 18:28S 33°26' E 151°32'0 0.0
2018-Jun-05 17:58S 33°26' E 151°32'0 0.0
2018-Jun-05 17:25S 33°26' E 151°32'0 0.0
2018-Jun-05 16:58S 33°26' E 151°32'0 0.1
2018-Jun-05 16:28S 33°26' E 151°32'0 0.1
2018-Jun-05 15:58S 33°26' E 151°32'0 0.3
2018-Jun-05 15:25S 33°27' E 151°32'2 3.0
2018-Jun-05 14:55S 33°26' E 151°33'610.4
2018-Jun-05 14:20S 33°23' E 151°40'1514.2
2018-Jun-05 13:18S 33°10' E 151°48'414.0
2018-Jun-05 13:00S 33°06' E 151°51'713.9
2018-Jun-05 12:30S 33°01' E 151°55'713.5
2018-Jun-05 12:00S 32°55' E 152°00'714.1
2018-Jun-05 11:31S 32°53' E 152°08'714.1
2018-Jun-05 11:01S 32°49' E 152°15'815.4
2018-Jun-05 10:31S 32°43' E 152°21'815.2
2018-Jun-05 10:00S 32°38' E 152°28'815.2
2018-Jun-05 09:31S 32°33' E 152°35'815.4
2018-Jun-05 09:00S 32°27' E 152°40'2414.2
2018-Jun-05 07:19S 32°05' E 152°51'25612.5
2018-Jun-04 10:45S 27°53' E 153°48'412.7
2018-Jun-04 10:27S 27°49' E 153°48'612.7
2018-Jun-04 10:00S 27°44' E 153°48'1113.0
2018-Jun-04 09:09S 27°33' E 153°48'612.9
2018-Jun-04 08:42S 27°27' E 153°48'  
Track history (hours):
 
Tides and Currents Weather Stations Pressure Air Temp Water Temp Dewpoint Dewpoint Depression Visibility Wind Speed Wind Dir Waves Ship Positions

Corona Ace

Last reported at 2018-Jun-11 10:11 UTC. Time now 2018-Jun-20 13:07 UTC.
Position S 27°45' E 153°49'.
Warning: this ship's position is 9 days out of date.

Length 229 m; draft 12.8 m.

Type: Cargo ship. MMSI: 357173000.

Date/timePositionNaut miles runAvg speedWind from/ knotsBaromVisibWave heightAir tempDewpointWater temp
2018-Jun-11 10:11S 27°45' E 153°49'211.3
2018-Jun-11 10:00S 27°47' E 153°49'28412.1
2018-Jun-10 10:34S 32°25' E 152°41'113.5
2018-Jun-10 10:28S 32°26' E 152°40'613.0
2018-Jun-10 10:00S 32°31' E 152°36'713.2
2018-Jun-10 09:30S 32°36' E 152°30'612.9
2018-Jun-10 09:00S 32°40' E 152°25'612.7
2018-Jun-10 08:30S 32°45' E 152°20'612.4
2018-Jun-10 08:00S 32°49' E 152°14'611.6
2018-Jun-10 07:30S 32°52' E 152°08'611.9
2018-Jun-10 07:00S 32°53' E 152°01'611.5
2018-Jun-10 06:30S 32°54' E 151°55'5 9.9
2018-Jun-10 06:00S 32°55' E 151°49'2 3.8
2018-Jun-10 05:29S 32°55' E 151°46'1 2.9
2018-Jun-10 05:00S 32°53' E 151°46'0 0.8
2018-Jun-10 04:30S 32°53' E 151°45'0 0.0
2018-Jun-10 04:00S 32°53' E 151°45'0 0.0
2018-Jun-10 03:30S 32°53' E 151°45'0 0.0
2018-Jun-10 03:00S 32°53' E 151°45'0 0.0
2018-Jun-10 02:30S 32°53' E 151°45'0 0.0
2018-Jun-10 02:00S 32°53' E 151°45'0 0.0
2018-Jun-10 01:30S 32°53' E 151°45'0 0.0
2018-Jun-10 01:00S 32°53' E 151°45'0 0.0
2018-Jun-10 00:30S 32°53' E 151°45'0 0.0
2018-Jun-10 00:00S 32°53' E 151°45'0 0.0
2018-Jun-09 23:30S 32°53' E 151°45'0 0.0
2018-Jun-09 23:00S 32°53' E 151°45'0 0.0
2018-Jun-09 22:30S 32°53' E 151°45'0 0.0
2018-Jun-09 22:00S 32°53' E 151°45'0 0.0
2018-Jun-09 21:30S 32°53' E 151°45'0 0.0
2018-Jun-09 21:00S 32°53' E 151°45'0 0.0
2018-Jun-09 20:30S 32°53' E 151°45'0 0.0
2018-Jun-09 20:00S 32°53' E 151°45'0 0.0
2018-Jun-09 19:27S 32°53' E 151°45'0 0.0
2018-Jun-09 19:00S 32°53' E 151°45'0 0.0
2018-Jun-09 18:30S 32°53' E 151°45'0 0.0
2018-Jun-09 18:00S 32°53' E 151°45'0 0.0
2018-Jun-09 17:30S 32°53' E 151°45'0 0.0
2018-Jun-09 17:00S 32°53' E 151°45'0 0.0
2018-Jun-09 16:30S 32°53' E 151°45'0 0.0
2018-Jun-09 16:00S 32°53' E 151°45'0 0.0
2018-Jun-09 15:00S 32°53' E 151°45'0 0.0
2018-Jun-09 14:30S 32°53' E 151°45'0 0.0
2018-Jun-09 14:00S 32°53' E 151°45'0 0.0
2018-Jun-09 13:30S 32°53' E 151°45'0 0.0
2018-Jun-09 13:00S 32°53' E 151°45'0 0.0
2018-Jun-09 12:30S 32°53' E 151°45'0 0.0
2018-Jun-09 12:00S 32°53' E 151°45'0 0.0
2018-Jun-09 11:30S 32°53' E 151°45'0 0.0
2018-Jun-09 11:00S 32°53' E 151°45'0 0.0
2018-Jun-09 10:30S 32°53' E 151°45'0 0.0
2018-Jun-09 10:00S 32°53' E 151°45'0 0.0
2018-Jun-09 09:30S 32°53' E 151°45'0 0.1
2018-Jun-09 08:59S 32°53' E 151°45'1 2.1
2018-Jun-09 08:30S 32°54' E 151°46'2 3.5
2018-Jun-09 08:00S 32°55' E 151°48'4 7.5
2018-Jun-09 07:30S 32°57' E 151°52'4 7.5
2018-Jun-09 07:00S 33°01' E 151°53'3 6.8
2018-Jun-09 06:30S 33°04' E 151°53'3 6.8
2018-Jun-09 06:00S 33°07' E 151°51'4 8.3
2018-Jun-09 05:30S 33°11' E 151°49'21 2.4
2018-Jun-08 20:46S 33°27' E 151°32'0 0.0
2018-Jun-08 20:19S 33°27' E 151°32'0 0.0
2018-Jun-08 19:58S 33°27' E 151°32'0 0.0
2018-Jun-08 19:25S 33°27' E 151°32'0 0.1
2018-Jun-08 18:58S 33°27' E 151°32'0 0.0
2018-Jun-08 18:28S 33°27' E 151°32'0 0.0
2018-Jun-08 16:16S 33°27' E 151°32'0 0.2
2018-Jun-08 15:58S 33°27' E 151°32'0 0.3
2018-Jun-08 15:28S 33°27' E 151°32'0 0.2
2018-Jun-08 14:58S 33°27' E 151°32'0 0.1
2018-Jun-08 14:28S 33°27' E 151°32'0 0.0
2018-Jun-08 13:52S 33°27' E 151°32'0 0.0
2018-Jun-08 13:28S 33°27' E 151°32'0 0.0
2018-Jun-08 12:58S 33°27' E 151°32'0 0.1
2018-Jun-08 12:28S 33°27' E 151°32'0 0.0
2018-Jun-08 11:58S 33°27' E 151°32'0 0.1
2018-Jun-08 11:25S 33°27' E 151°32'0 0.0
2018-Jun-08 10:58S 33°27' E 151°32'0 0.1
2018-Jun-08 10:16S 33°27' E 151°32'0 0.2
2018-Jun-08 09:58S 33°27' E 151°32'0 0.1
2018-Jun-08 09:16S 33°27' E 151°32'0 0.1
2018-Jun-08 08:22S 33°27' E 151°32'0 0.0
2018-Jun-08 07:55S 33°27' E 151°32'0 0.2
2018-Jun-08 07:25S 33°27' E 151°32'0 0.0
2018-Jun-08 01:37S 33°27' E 151°32'0 0.1
2018-Jun-08 01:13S 33°27' E 151°32'0 0.2
2018-Jun-08 00:58S 33°27' E 151°32'0 0.0
2018-Jun-08 00:28S 33°27' E 151°32'0 0.0
2018-Jun-07 20:31S 33°27' E 151°32'0 0.1
2018-Jun-07 20:28S 33°27' E 151°32'0 0.0
2018-Jun-07 19:58S 33°27' E 151°32'0 0.0
2018-Jun-07 19:28S 33°27' E 151°32'0 0.1
2018-Jun-07 18:58S 33°27' E 151°32'0 0.1
2018-Jun-07 18:28S 33°27' E 151°32'0 0.1
2018-Jun-07 17:40S 33°27' E 151°32'0 0.0
2018-Jun-07 17:16S 33°27' E 151°32'0 0.0
2018-Jun-07 15:13S 33°27' E 151°32'0 0.0
2018-Jun-07 14:52S 33°27' E 151°32'0 0.0
2018-Jun-07 14:25S 33°27' E 151°32'0 0.0
2018-Jun-07 13:58S 33°27' E 151°32'0 0.0
2018-Jun-07 12:40S 33°27' E 151°32'0 0.2
2018-Jun-07 12:22S 33°27' E 151°32'0 0.1
2018-Jun-07 11:43S 33°27' E 151°32'0 0.0
2018-Jun-07 11:28S 33°27' E 151°32'0 0.1
2018-Jun-07 10:55S 33°27' E 151°32'0 0.0
2018-Jun-07 07:49S 33°27' E 151°32'0 0.0
2018-Jun-07 07:25S 33°27' E 151°32'0 0.0
2018-Jun-06 20:58S 33°27' E 151°32'0 0.1
2018-Jun-06 20:28S 33°27' E 151°32'0 0.1
2018-Jun-06 19:58S 33°27' E 151°32'0 0.0
2018-Jun-06 19:28S 33°27' E 151°32'0 0.0
2018-Jun-06 18:58S 33°27' E 151°32'0 0.0
2018-Jun-06 18:28S 33°27' E 151°32'0 0.0
2018-Jun-06 17:58S 33°27' E 151°32'0 0.0
2018-Jun-06 17:28S 33°27' E 151°32'0 0.1
2018-Jun-06 16:55S 33°27' E 151°32'0 0.1
2018-Jun-06 16:25S 33°27' E 151°32'0 0.0
2018-Jun-06 15:58S 33°27' E 151°32'0 0.0
2018-Jun-06 15:28S 33°27' E 151°32'0 0.1
2018-Jun-06 14:58S 33°27' E 151°32'0 0.1
2018-Jun-06 14:28S 33°27' E 151°32'0 0.1
2018-Jun-06 13:58S 33°27' E 151°32'0 0.1
2018-Jun-06 13:28S 33°27' E 151°32'0 0.1
2018-Jun-06 12:58S 33°27' E 151°32'0 0.1
2018-Jun-06 12:28S 33°27' E 151°32'0 0.0
2018-Jun-06 11:52S 33°27' E 151°32'0 0.1
2018-Jun-06 11:28S 33°27' E 151°32'0 0.2
2018-Jun-06 10:58S 33°27' E 151°32'0 0.0
2018-Jun-06 10:28S 33°27' E 151°32'0 0.0
2018-Jun-06 09:55S 33°27' E 151°32'0 0.1
2018-Jun-06 09:28S 33°27' E 151°32'0 0.0
2018-Jun-06 07:55S 33°27' E 151°32'0 0.1
2018-Jun-06 06:46S 33°26' E 151°32'0 0.0
2018-Jun-05 21:01S 33°26' E 151°32'0 0.1
2018-Jun-05 20:58S 33°26' E 151°32'0 0.1
2018-Jun-05 20:28S 33°26' E 151°32'0 0.0
2018-Jun-05 19:58S 33°26' E 151°32'0 0.0
2018-Jun-05 19:25S 33°26' E 151°32'0 0.1
2018-Jun-05 18:58S 33°26' E 151°32'0 0.1
2018-Jun-05 18:28S 33°26' E 151°32'0 0.0
2018-Jun-05 17:58S 33°26' E 151°32'0 0.0
2018-Jun-05 17:25S 33°26' E 151°32'0 0.0
2018-Jun-05 16:58S 33°26' E 151°32'0 0.1
2018-Jun-05 16:28S 33°26' E 151°32'0 0.1
2018-Jun-05 15:58S 33°26' E 151°32'0 0.3
2018-Jun-05 15:25S 33°27' E 151°32'2 3.0
2018-Jun-05 14:55S 33°26' E 151°33'610.4
2018-Jun-05 14:20S 33°23' E 151°40'1514.2
2018-Jun-05 13:18S 33°10' E 151°48'414.0
2018-Jun-05 13:00S 33°06' E 151°51'713.9
2018-Jun-05 12:30S 33°01' E 151°55'713.5
2018-Jun-05 12:00S 32°55' E 152°00'714.1
2018-Jun-05 11:31S 32°53' E 152°08'714.1
2018-Jun-05 11:01S 32°49' E 152°15'815.4
2018-Jun-05 10:31S 32°43' E 152°21'815.2
2018-Jun-05 10:00S 32°38' E 152°28'815.2
2018-Jun-05 09:31S 32°33' E 152°35'815.4
2018-Jun-05 09:00S 32°27' E 152°40'2414.2
2018-Jun-05 07:19S 32°05' E 152°51'25612.5
2018-Jun-04 10:45S 27°53' E 153°48'412.7
2018-Jun-04 10:27S 27°49' E 153°48'612.7
2018-Jun-04 10:00S 27°44' E 153°48'1113.0
2018-Jun-04 09:09S 27°33' E 153°48'612.9
2018-Jun-04 08:42S 27°27' E 153°48'  

Dump ship's entire track history